sensor_id;sensor_type;location;lat;lon;timestamp;P1;durP1;ratioP1;P2;durP2;ratioP2
4889;SDS011;2459;42.268;23.112;2022-11-20T00:00:01;8.30;;;1.50;;
4889;SDS011;2459;42.268;23.112;2022-11-20T00:02:27;3.00;;;2.03;;
4889;SDS011;2459;42.268;23.112;2022-11-20T00:04:54;2.47;;;1.53;;
4889;SDS011;2459;42.268;23.112;2022-11-20T00:07:20;9.37;;;2.40;;
4889;SDS011;2459;42.268;23.112;2022-11-20T00:09:46;5.67;;;2.57;;
4889;SDS011;2459;42.268;23.112;2022-11-20T00:12:13;7.57;;;2.13;;
4889;SDS011;2459;42.268;23.112;2022-11-20T00:14:39;2.83;;;2.20;;
4889;SDS011;2459;42.268;23.112;2022-11-20T00:17:07;5.00;;;2.00;;
4889;SDS011;2459;42.268;23.112;2022-11-20T00:19:34;5.13;;;2.47;;
4889;SDS011;2459;42.268;23.112;2022-11-20T00:22:00;5.70;;;2.97;;
4889;SDS011;2459;42.268;23.112;2022-11-20T00:24:27;2.17;;;1.70;;
4889;SDS011;2459;42.268;23.112;2022-11-20T00:26:53;7.20;;;1.77;;
4889;SDS011;2459;42.268;23.112;2022-11-20T00:29:20;16.07;;;4.50;;
4889;SDS011;2459;42.268;23.112;2022-11-20T00:31:46;4.53;;;1.27;;
4889;SDS011;2459;42.268;23.112;2022-11-20T00:34:14;5.77;;;1.90;;
4889;SDS011;2459;42.268;23.112;2022-11-20T00:36:40;3.10;;;1.80;;
4889;SDS011;2459;42.268;23.112;2022-11-20T00:39:07;4.43;;;1.90;;
4889;SDS011;2459;42.268;23.112;2022-11-20T00:41:33;3.73;;;1.60;;
4889;SDS011;2459;42.268;23.112;2022-11-20T00:44:00;3.00;;;1.60;;
4889;SDS011;2459;42.268;23.112;2022-11-20T00:46:26;4.47;;;1.47;;
4889;SDS011;2459;42.268;23.112;2022-11-20T00:48:53;1.70;;;1.47;;
4889;SDS011;2459;42.268;23.112;2022-11-20T00:51:22;10.40;;;2.60;;
4889;SDS011;2459;42.268;23.112;2022-11-20T00:53:49;8.33;;;2.00;;
4889;SDS011;2459;42.268;23.112;2022-11-20T00:56:16;1.23;;;1.00;;
4889;SDS011;2459;42.268;23.112;2022-11-20T00:58:43;3.53;;;1.50;;
4889;SDS011;2459;42.268;23.112;2022-11-20T01:01:10;7.67;;;1.60;;
4889;SDS011;2459;42.268;23.112;2022-11-20T01:03:38;3.03;;;1.67;;
4889;SDS011;2459;42.268;23.112;2022-11-20T01:06:05;5.23;;;1.40;;
4889;SDS011;2459;42.268;23.112;2022-11-20T01:08:34;5.70;;;1.80;;
4889;SDS011;2459;42.268;23.112;2022-11-20T01:11:01;2.30;;;1.30;;
4889;SDS011;2459;42.268;23.112;2022-11-20T01:13:28;6.40;;;1.50;;
4889;SDS011;2459;42.268;23.112;2022-11-20T01:16:04;4.23;;;1.53;;
4889;SDS011;2459;42.268;23.112;2022-11-20T01:18:31;4.93;;;1.50;;
4889;SDS011;2459;42.268;23.112;2022-11-20T01:20:59;6.30;;;1.90;;
4889;SDS011;2459;42.268;23.112;2022-11-20T01:23:26;6.57;;;1.43;;
4889;SDS011;2459;42.268;23.112;2022-11-20T01:25:54;4.20;;;1.73;;
4889;SDS011;2459;42.268;23.112;2022-11-20T01:28:20;2.10;;;1.40;;
4889;SDS011;2459;42.268;23.112;2022-11-20T01:30:47;1.40;;;1.30;;
4889;SDS011;2459;42.268;23.112;2022-11-20T01:33:13;2.57;;;1.40;;
4889;SDS011;2459;42.268;23.112;2022-11-20T01:35:39;1.70;;;1.30;;
4889;SDS011;2459;42.268;23.112;2022-11-20T01:38:06;5.90;;;0.93;;
4889;SDS011;2459;42.268;23.112;2022-11-20T01:40:32;1.83;;;1.37;;
4889;SDS011;2459;42.268;23.112;2022-11-20T01:43:06;2.50;;;1.40;;
4889;SDS011;2459;42.268;23.112;2022-11-20T01:45:54;2.27;;;1.47;;
4889;SDS011;2459;42.268;23.112;2022-11-20T01:48:22;1.67;;;1.53;;
4889;SDS011;2459;42.268;23.112;2022-11-20T01:50:50;6.20;;;2.00;;
4889;SDS011;2459;42.268;23.112;2022-11-20T01:53:17;4.37;;;1.37;;
4889;SDS011;2459;42.268;23.112;2022-11-20T01:55:45;1.80;;;1.30;;
4889;SDS011;2459;42.268;23.112;2022-11-20T01:58:15;8.00;;;2.03;;
4889;SDS011;2459;42.268;23.112;2022-11-20T02:00:42;11.33;;;1.43;;
4889;SDS011;2459;42.268;23.112;2022-11-20T02:03:09;6.23;;;1.80;;
4889;SDS011;2459;42.268;23.112;2022-11-20T02:05:38;2.93;;;1.70;;
4889;SDS011;2459;42.268;23.112;2022-11-20T02:08:06;2.90;;;1.17;;
4889;SDS011;2459;42.268;23.112;2022-11-20T02:10:33;1.93;;;0.90;;
4889;SDS011;2459;42.268;23.112;2022-11-20T02:12:59;1.57;;;1.37;;
4889;SDS011;2459;42.268;23.112;2022-11-20T02:15:53;12.97;;;2.10;;
4889;SDS011;2459;42.268;23.112;2022-11-20T02:18:20;3.87;;;1.60;;
4889;SDS011;2459;42.268;23.112;2022-11-20T02:20:47;3.77;;;1.20;;
4889;SDS011;2459;42.268;23.112;2022-11-20T02:23:16;4.20;;;2.10;;
4889;SDS011;2459;42.268;23.112;2022-11-20T02:25:45;3.53;;;1.80;;
4889;SDS011;2459;42.268;23.112;2022-11-20T02:28:13;8.00;;;2.90;;
4889;SDS011;2459;42.268;23.112;2022-11-20T02:30:39;5.07;;;2.10;;
4889;SDS011;2459;42.268;23.112;2022-11-20T02:33:05;3.27;;;1.93;;
4889;SDS011;2459;42.268;23.112;2022-11-20T02:38:16;9.37;;;2.80;;
4889;SDS011;2459;42.268;23.112;2022-11-20T02:40:43;5.57;;;1.60;;
4889;SDS011;2459;42.268;23.112;2022-11-20T02:43:11;6.77;;;2.50;;
4889;SDS011;2459;42.268;23.112;2022-11-20T02:45:37;2.47;;;1.90;;
4889;SDS011;2459;42.268;23.112;2022-11-20T02:48:05;4.00;;;1.23;;
4889;SDS011;2459;42.268;23.112;2022-11-20T02:50:32;3.17;;;1.60;;
4889;SDS011;2459;42.268;23.112;2022-11-20T02:52:58;2.13;;;1.80;;
4889;SDS011;2459;42.268;23.112;2022-11-20T02:55:24;4.47;;;1.93;;
4889;SDS011;2459;42.268;23.112;2022-11-20T02:57:51;7.30;;;1.80;;
4889;SDS011;2459;42.268;23.112;2022-11-20T03:00:19;4.43;;;2.23;;
4889;SDS011;2459;42.268;23.112;2022-11-20T03:02:45;13.70;;;2.20;;
4889;SDS011;2459;42.268;23.112;2022-11-20T03:05:12;3.87;;;1.63;;
4889;SDS011;2459;42.268;23.112;2022-11-20T03:07:38;4.60;;;1.53;;
4889;SDS011;2459;42.268;23.112;2022-11-20T03:10:05;7.80;;;2.60;;
4889;SDS011;2459;42.268;23.112;2022-11-20T03:12:32;2.93;;;2.27;;
4889;SDS011;2459;42.268;23.112;2022-11-20T03:15:01;2.50;;;1.40;;
4889;SDS011;2459;42.268;23.112;2022-11-20T03:17:29;6.17;;;1.60;;
4889;SDS011;2459;42.268;23.112;2022-11-20T03:19:56;2.30;;;1.63;;
4889;SDS011;2459;42.268;23.112;2022-11-20T03:22:22;3.33;;;1.70;;
4889;SDS011;2459;42.268;23.112;2022-11-20T03:24:49;8.77;;;2.00;;
4889;SDS011;2459;42.268;23.112;2022-11-20T03:27:16;6.50;;;1.93;;
4889;SDS011;2459;42.268;23.112;2022-11-20T03:29:42;5.87;;;2.40;;
4889;SDS011;2459;42.268;23.112;2022-11-20T03:32:09;5.93;;;2.90;;
4889;SDS011;2459;42.268;23.112;2022-11-20T03:34:36;4.87;;;2.07;;
4889;SDS011;2459;42.268;23.112;2022-11-20T03:37:03;7.10;;;1.60;;
4889;SDS011;2459;42.268;23.112;2022-11-20T03:39:29;3.30;;;1.97;;
4889;SDS011;2459;42.268;23.112;2022-11-20T03:41:56;4.70;;;1.60;;
4889;SDS011;2459;42.268;23.112;2022-11-20T03:44:22;4.03;;;1.57;;
4889;SDS011;2459;42.268;23.112;2022-11-20T03:46:49;5.30;;;2.20;;
4889;SDS011;2459;42.268;23.112;2022-11-20T03:49:15;2.37;;;1.40;;
4889;SDS011;2459;42.268;23.112;2022-11-20T03:51:43;2.90;;;1.90;;
4889;SDS011;2459;42.268;23.112;2022-11-20T03:54:09;7.30;;;1.83;;
4889;SDS011;2459;42.268;23.112;2022-11-20T03:56:37;5.80;;;1.43;;
4889;SDS011;2459;42.268;23.112;2022-11-20T03:59:04;5.77;;;2.13;;
4889;SDS011;2459;42.268;23.112;2022-11-20T04:01:31;5.30;;;2.10;;
4889;SDS011;2459;42.268;23.112;2022-11-20T04:03:58;7.43;;;2.60;;
4889;SDS011;2459;42.268;23.112;2022-11-20T04:06:25;7.77;;;2.27;;
4889;SDS011;2459;42.268;23.112;2022-11-20T04:08:55;4.87;;;2.97;;
4889;SDS011;2459;42.268;23.112;2022-11-20T04:11:22;12.63;;;2.83;;
4889;SDS011;2459;42.268;23.112;2022-11-20T04:13:49;6.20;;;3.03;;
4889;SDS011;2459;42.268;23.112;2022-11-20T04:16:16;11.87;;;2.10;;
4889;SDS011;2459;42.268;23.112;2022-11-20T04:18:43;5.43;;;2.90;;
4889;SDS011;2459;42.268;23.112;2022-11-20T04:21:09;11.00;;;2.33;;
4889;SDS011;2459;42.268;23.112;2022-11-20T04:23:36;9.23;;;2.47;;
4889;SDS011;2459;42.268;23.112;2022-11-20T04:26:04;11.13;;;2.87;;
4889;SDS011;2459;42.268;23.112;2022-11-20T04:28:31;6.37;;;2.43;;
4889;SDS011;2459;42.268;23.112;2022-11-20T04:31:01;9.07;;;2.83;;
4889;SDS011;2459;42.268;23.112;2022-11-20T04:33:28;9.77;;;3.30;;
4889;SDS011;2459;42.268;23.112;2022-11-20T04:35:54;12.33;;;2.90;;
4889;SDS011;2459;42.268;23.112;2022-11-20T04:38:21;9.67;;;2.63;;
4889;SDS011;2459;42.268;23.112;2022-11-20T04:40:47;9.33;;;3.60;;
4889;SDS011;2459;42.268;23.112;2022-11-20T04:43:18;11.10;;;4.30;;
4889;SDS011;2459;42.268;23.112;2022-11-20T04:45:49;23.83;;;4.10;;
4889;SDS011;2459;42.268;23.112;2022-11-20T04:48:16;9.20;;;3.97;;
4889;SDS011;2459;42.268;23.112;2022-11-20T04:50:42;12.80;;;3.47;;
4889;SDS011;2459;42.268;23.112;2022-11-20T04:53:09;7.83;;;2.50;;
4889;SDS011;2459;42.268;23.112;2022-11-20T04:55:35;12.53;;;3.47;;
4889;SDS011;2459;42.268;23.112;2022-11-20T04:58:02;13.93;;;2.57;;
4889;SDS011;2459;42.268;23.112;2022-11-20T05:00:30;7.07;;;3.10;;
4889;SDS011;2459;42.268;23.112;2022-11-20T05:02:56;11.80;;;2.57;;
4889;SDS011;2459;42.268;23.112;2022-11-20T05:05:22;4.73;;;2.50;;
4889;SDS011;2459;42.268;23.112;2022-11-20T05:07:52;8.20;;;3.47;;
4889;SDS011;2459;42.268;23.112;2022-11-20T05:10:18;5.23;;;3.00;;
4889;SDS011;2459;42.268;23.112;2022-11-20T05:12:45;8.53;;;2.90;;
4889;SDS011;2459;42.268;23.112;2022-11-20T05:15:11;8.30;;;2.90;;
4889;SDS011;2459;42.268;23.112;2022-11-20T05:17:39;5.97;;;2.50;;
4889;SDS011;2459;42.268;23.112;2022-11-20T05:20:06;4.80;;;2.77;;
4889;SDS011;2459;42.268;23.112;2022-11-20T05:22:32;12.80;;;3.20;;
4889;SDS011;2459;42.268;23.112;2022-11-20T05:24:59;13.63;;;2.93;;
4889;SDS011;2459;42.268;23.112;2022-11-20T05:27:25;10.00;;;3.07;;
4889;SDS011;2459;42.268;23.112;2022-11-20T05:29:52;11.47;;;3.07;;
4889;SDS011;2459;42.268;23.112;2022-11-20T05:32:18;8.80;;;3.17;;
4889;SDS011;2459;42.268;23.112;2022-11-20T05:34:46;5.57;;;3.00;;
4889;SDS011;2459;42.268;23.112;2022-11-20T05:37:12;7.83;;;3.73;;
4889;SDS011;2459;42.268;23.112;2022-11-20T05:39:39;4.40;;;3.10;;
4889;SDS011;2459;42.268;23.112;2022-11-20T05:42:05;8.93;;;3.80;;
4889;SDS011;2459;42.268;23.112;2022-11-20T05:44:49;11.63;;;3.63;;
4889;SDS011;2459;42.268;23.112;2022-11-20T05:47:16;4.37;;;3.10;;
4889;SDS011;2459;42.268;23.112;2022-11-20T05:49:42;11.20;;;3.27;;
4889;SDS011;2459;42.268;23.112;2022-11-20T05:52:10;17.87;;;4.10;;
4889;SDS011;2459;42.268;23.112;2022-11-20T05:54:36;10.93;;;2.80;;
4889;SDS011;2459;42.268;23.112;2022-11-20T05:57:03;7.00;;;3.47;;
4889;SDS011;2459;42.268;23.112;2022-11-20T05:59:29;11.60;;;4.10;;
4889;SDS011;2459;42.268;23.112;2022-11-20T06:01:56;5.77;;;4.03;;
4889;SDS011;2459;42.268;23.112;2022-11-20T06:04:22;8.67;;;3.00;;
4889;SDS011;2459;42.268;23.112;2022-11-20T06:06:49;9.20;;;3.37;;
4889;SDS011;2459;42.268;23.112;2022-11-20T06:09:17;4.20;;;2.00;;
4889;SDS011;2459;42.268;23.112;2022-11-20T06:11:43;10.30;;;2.97;;
4889;SDS011;2459;42.268;23.112;2022-11-20T06:14:10;6.23;;;3.57;;
4889;SDS011;2459;42.268;23.112;2022-11-20T06:16:36;8.77;;;3.97;;
4889;SDS011;2459;42.268;23.112;2022-11-20T06:19:05;8.87;;;2.70;;
4889;SDS011;2459;42.268;23.112;2022-11-20T06:21:32;11.20;;;2.57;;
4889;SDS011;2459;42.268;23.112;2022-11-20T06:24:01;4.63;;;2.30;;
4889;SDS011;2459;42.268;23.112;2022-11-20T06:26:29;8.97;;;3.00;;
4889;SDS011;2459;42.268;23.112;2022-11-20T06:28:56;6.50;;;3.17;;
4889;SDS011;2459;42.268;23.112;2022-11-20T06:31:23;7.53;;;3.20;;
4889;SDS011;2459;42.268;23.112;2022-11-20T06:33:51;6.27;;;2.73;;
4889;SDS011;2459;42.268;23.112;2022-11-20T06:36:18;8.13;;;2.93;;
4889;SDS011;2459;42.268;23.112;2022-11-20T06:38:45;6.80;;;1.90;;
4889;SDS011;2459;42.268;23.112;2022-11-20T06:41:12;6.30;;;3.10;;
4889;SDS011;2459;42.268;23.112;2022-11-20T06:43:40;9.60;;;3.40;;
4889;SDS011;2459;42.268;23.112;2022-11-20T06:46:08;11.47;;;3.40;;
4889;SDS011;2459;42.268;23.112;2022-11-20T06:48:35;15.00;;;4.77;;
4889;SDS011;2459;42.268;23.112;2022-11-20T06:51:02;8.43;;;3.03;;
4889;SDS011;2459;42.268;23.112;2022-11-20T06:53:29;8.40;;;2.70;;
4889;SDS011;2459;42.268;23.112;2022-11-20T06:55:55;11.83;;;2.77;;
4889;SDS011;2459;42.268;23.112;2022-11-20T06:58:22;11.13;;;3.07;;
4889;SDS011;2459;42.268;23.112;2022-11-20T07:00:50;7.67;;;2.73;;
4889;SDS011;2459;42.268;23.112;2022-11-20T07:03:16;6.40;;;2.40;;
4889;SDS011;2459;42.268;23.112;2022-11-20T07:05:43;7.67;;;3.70;;
4889;SDS011;2459;42.268;23.112;2022-11-20T07:08:11;7.90;;;3.30;;
4889;SDS011;2459;42.268;23.112;2022-11-20T07:10:37;5.90;;;3.20;;
4889;SDS011;2459;42.268;23.112;2022-11-20T07:13:04;19.17;;;3.13;;
4889;SDS011;2459;42.268;23.112;2022-11-20T07:15:32;10.23;;;2.87;;
4889;SDS011;2459;42.268;23.112;2022-11-20T07:17:59;12.57;;;3.47;;
4889;SDS011;2459;42.268;23.112;2022-11-20T07:20:26;11.53;;;3.90;;
4889;SDS011;2459;42.268;23.112;2022-11-20T07:22:53;8.37;;;3.17;;
4889;SDS011;2459;42.268;23.112;2022-11-20T07:25:20;19.60;;;6.40;;
4889;SDS011;2459;42.268;23.112;2022-11-20T07:27:46;13.90;;;4.20;;
4889;SDS011;2459;42.268;23.112;2022-11-20T07:30:13;9.63;;;4.20;;
4889;SDS011;2459;42.268;23.112;2022-11-20T07:32:40;10.00;;;4.40;;
4889;SDS011;2459;42.268;23.112;2022-11-20T07:35:08;12.40;;;3.43;;
4889;SDS011;2459;42.268;23.112;2022-11-20T07:37:34;6.00;;;3.20;;
4889;SDS011;2459;42.268;23.112;2022-11-20T07:40:01;13.77;;;5.67;;
4889;SDS011;2459;42.268;23.112;2022-11-20T07:42:27;18.97;;;4.63;;
4889;SDS011;2459;42.268;23.112;2022-11-20T07:44:54;22.17;;;4.20;;
4889;SDS011;2459;42.268;23.112;2022-11-20T07:47:20;12.13;;;3.53;;
4889;SDS011;2459;42.268;23.112;2022-11-20T07:49:47;12.70;;;3.40;;
4889;SDS011;2459;42.268;23.112;2022-11-20T07:52:15;11.47;;;3.30;;
4889;SDS011;2459;42.268;23.112;2022-11-20T07:54:41;24.83;;;3.30;;
4889;SDS011;2459;42.268;23.112;2022-11-20T07:57:08;7.60;;;3.20;;
4889;SDS011;2459;42.268;23.112;2022-11-20T07:59:34;7.53;;;3.10;;
4889;SDS011;2459;42.268;23.112;2022-11-20T08:02:01;8.33;;;3.40;;
4889;SDS011;2459;42.268;23.112;2022-11-20T08:04:27;6.70;;;3.13;;
4889;SDS011;2459;42.268;23.112;2022-11-20T08:06:54;7.53;;;3.30;;
4889;SDS011;2459;42.268;23.112;2022-11-20T08:09:21;14.10;;;4.30;;
4889;SDS011;2459;42.268;23.112;2022-11-20T08:11:48;10.73;;;4.43;;
4889;SDS011;2459;42.268;23.112;2022-11-20T08:14:34;11.90;;;6.07;;
4889;SDS011;2459;42.268;23.112;2022-11-20T08:17:01;15.53;;;3.77;;
4889;SDS011;2459;42.268;23.112;2022-11-20T08:19:27;11.50;;;5.13;;
4889;SDS011;2459;42.268;23.112;2022-11-20T08:21:54;17.50;;;5.10;;
4889;SDS011;2459;42.268;23.112;2022-11-20T08:24:22;28.77;;;5.97;;
4889;SDS011;2459;42.268;23.112;2022-11-20T08:26:49;21.27;;;5.33;;
4889;SDS011;2459;42.268;23.112;2022-11-20T08:29:16;8.93;;;4.17;;
4889;SDS011;2459;42.268;23.112;2022-11-20T08:31:42;9.50;;;4.10;;
4889;SDS011;2459;42.268;23.112;2022-11-20T08:34:09;13.90;;;3.47;;
4889;SDS011;2459;42.268;23.112;2022-11-20T08:36:36;8.63;;;2.73;;
4889;SDS011;2459;42.268;23.112;2022-11-20T08:39:03;16.03;;;4.10;;
4889;SDS011;2459;42.268;23.112;2022-11-20T08:41:31;15.43;;;3.40;;
4889;SDS011;2459;42.268;23.112;2022-11-20T08:43:58;13.27;;;5.40;;
4889;SDS011;2459;42.268;23.112;2022-11-20T08:46:26;21.30;;;6.40;;
4889;SDS011;2459;42.268;23.112;2022-11-20T08:48:53;14.13;;;6.30;;
4889;SDS011;2459;42.268;23.112;2022-11-20T08:51:22;28.40;;;7.20;;
4889;SDS011;2459;42.268;23.112;2022-11-20T08:53:49;9.43;;;4.60;;
4889;SDS011;2459;42.268;23.112;2022-11-20T08:56:15;12.07;;;4.13;;
4889;SDS011;2459;42.268;23.112;2022-11-20T08:58:44;9.23;;;3.10;;
4889;SDS011;2459;42.268;23.112;2022-11-20T09:01:10;11.43;;;3.73;;
4889;SDS011;2459;42.268;23.112;2022-11-20T09:03:37;14.13;;;2.77;;
4889;SDS011;2459;42.268;23.112;2022-11-20T09:06:04;12.43;;;3.70;;
4889;SDS011;2459;42.268;23.112;2022-11-20T09:08:31;18.97;;;5.23;;
4889;SDS011;2459;42.268;23.112;2022-11-20T09:10:58;18.63;;;3.67;;
4889;SDS011;2459;42.268;23.112;2022-11-20T09:13:25;21.20;;;6.67;;
4889;SDS011;2459;42.268;23.112;2022-11-20T09:15:54;26.70;;;4.93;;
4889;SDS011;2459;42.268;23.112;2022-11-20T09:18:21;20.20;;;8.53;;
4889;SDS011;2459;42.268;23.112;2022-11-20T09:20:48;17.83;;;6.30;;
4889;SDS011;2459;42.268;23.112;2022-11-20T09:23:14;35.87;;;4.10;;
4889;SDS011;2459;42.268;23.112;2022-11-20T09:25:41;28.03;;;8.73;;
4889;SDS011;2459;42.268;23.112;2022-11-20T09:28:07;22.70;;;6.40;;
4889;SDS011;2459;42.268;23.112;2022-11-20T09:30:34;21.97;;;5.00;;
4889;SDS011;2459;42.268;23.112;2022-11-20T09:33:02;22.23;;;5.43;;
4889;SDS011;2459;42.268;23.112;2022-11-20T09:35:30;15.43;;;5.37;;
4889;SDS011;2459;42.268;23.112;2022-11-20T09:37:56;45.30;;;5.40;;
4889;SDS011;2459;42.268;23.112;2022-11-20T09:40:23;21.23;;;5.30;;
4889;SDS011;2459;42.268;23.112;2022-11-20T09:42:53;18.13;;;4.70;;
4889;SDS011;2459;42.268;23.112;2022-11-20T09:45:24;22.40;;;5.07;;
4889;SDS011;2459;42.268;23.112;2022-11-20T09:47:57;18.60;;;4.67;;
4889;SDS011;2459;42.268;23.112;2022-11-20T09:50:28;12.00;;;4.70;;
4889;SDS011;2459;42.268;23.112;2022-11-20T09:52:59;25.03;;;4.93;;
4889;SDS011;2459;42.268;23.112;2022-11-20T09:55:27;15.37;;;3.90;;
4889;SDS011;2459;42.268;23.112;2022-11-20T09:57:55;15.23;;;4.50;;
4889;SDS011;2459;42.268;23.112;2022-11-20T10:00:23;20.73;;;6.23;;
4889;SDS011;2459;42.268;23.112;2022-11-20T10:02:51;23.70;;;6.43;;
4889;SDS011;2459;42.268;23.112;2022-11-20T10:05:20;10.53;;;4.20;;
4889;SDS011;2459;42.268;23.112;2022-11-20T10:07:51;11.03;;;5.23;;
4889;SDS011;2459;42.268;23.112;2022-11-20T10:10:22;11.60;;;3.80;;
4889;SDS011;2459;42.268;23.112;2022-11-20T10:12:57;28.87;;;3.70;;
4889;SDS011;2459;42.268;23.112;2022-11-20T10:15:27;18.43;;;4.37;;
4889;SDS011;2459;42.268;23.112;2022-11-20T10:18:09;19.50;;;3.97;;
4889;SDS011;2459;42.268;23.112;2022-11-20T10:20:40;18.23;;;4.07;;
4889;SDS011;2459;42.268;23.112;2022-11-20T10:26:02;22.27;;;4.90;;
4889;SDS011;2459;42.268;23.112;2022-11-20T10:28:33;9.67;;;3.00;;
4889;SDS011;2459;42.268;23.112;2022-11-20T10:31:02;11.67;;;3.77;;
4889;SDS011;2459;42.268;23.112;2022-11-20T10:33:29;21.90;;;4.33;;
4889;SDS011;2459;42.268;23.112;2022-11-20T10:36:00;12.67;;;3.17;;
4889;SDS011;2459;42.268;23.112;2022-11-20T10:38:34;14.87;;;4.30;;
4889;SDS011;2459;42.268;23.112;2022-11-20T10:41:03;13.00;;;4.13;;
4889;SDS011;2459;42.268;23.112;2022-11-20T10:43:51;20.30;;;4.00;;
4889;SDS011;2459;42.268;23.112;2022-11-20T10:46:18;16.40;;;5.30;;
4889;SDS011;2459;42.268;23.112;2022-11-20T10:48:47;31.70;;;6.50;;
4889;SDS011;2459;42.268;23.112;2022-11-20T10:51:20;17.40;;;4.97;;
4889;SDS011;2459;42.268;23.112;2022-11-20T10:54:03;13.13;;;4.30;;
4889;SDS011;2459;42.268;23.112;2022-11-20T10:56:34;19.43;;;4.10;;
4889;SDS011;2459;42.268;23.112;2022-11-20T10:59:11;28.40;;;4.67;;
4889;SDS011;2459;42.268;23.112;2022-11-20T11:01:39;32.97;;;5.47;;
4889;SDS011;2459;42.268;23.112;2022-11-20T11:04:07;16.20;;;6.30;;
4889;SDS011;2459;42.268;23.112;2022-11-20T11:06:39;18.60;;;4.40;;
4889;SDS011;2459;42.268;23.112;2022-11-20T11:09:09;32.17;;;4.23;;
4889;SDS011;2459;42.268;23.112;2022-11-20T11:11:39;27.73;;;4.13;;
4889;SDS011;2459;42.268;23.112;2022-11-20T11:14:05;21.33;;;4.13;;
4889;SDS011;2459;42.268;23.112;2022-11-20T11:16:32;13.90;;;2.70;;
4889;SDS011;2459;42.268;23.112;2022-11-20T11:19:05;12.47;;;3.70;;
4889;SDS011;2459;42.268;23.112;2022-11-20T11:21:31;7.30;;;3.00;;
4889;SDS011;2459;42.268;23.112;2022-11-20T11:23:59;13.63;;;3.33;;
4889;SDS011;2459;42.268;23.112;2022-11-20T11:26:26;4.43;;;1.47;;
4889;SDS011;2459;42.268;23.112;2022-11-20T11:28:54;12.60;;;3.77;;
4889;SDS011;2459;42.268;23.112;2022-11-20T11:31:25;10.50;;;3.10;;
4889;SDS011;2459;42.268;23.112;2022-11-20T11:33:51;11.70;;;1.83;;
4889;SDS011;2459;42.268;23.112;2022-11-20T11:36:19;11.20;;;2.37;;
4889;SDS011;2459;42.268;23.112;2022-11-20T11:38:48;8.73;;;2.07;;
4889;SDS011;2459;42.268;23.112;2022-11-20T11:41:17;9.50;;;3.47;;
4889;SDS011;2459;42.268;23.112;2022-11-20T11:43:49;15.53;;;2.93;;
4889;SDS011;2459;42.268;23.112;2022-11-20T11:46:36;11.50;;;4.00;;
4889;SDS011;2459;42.268;23.112;2022-11-20T11:49:11;6.77;;;3.70;;
4889;SDS011;2459;42.268;23.112;2022-11-20T11:51:41;8.13;;;2.57;;
4889;SDS011;2459;42.268;23.112;2022-11-20T11:54:14;17.70;;;4.13;;
4889;SDS011;2459;42.268;23.112;2022-11-20T11:56:42;6.27;;;3.27;;
4889;SDS011;2459;42.268;23.112;2022-11-20T11:59:09;4.77;;;2.60;;
4889;SDS011;2459;42.268;23.112;2022-11-20T12:01:41;7.97;;;2.83;;
4889;SDS011;2459;42.268;23.112;2022-11-20T12:04:11;6.60;;;2.33;;
4889;SDS011;2459;42.268;23.112;2022-11-20T12:06:41;15.40;;;3.00;;
4889;SDS011;2459;42.268;23.112;2022-11-20T12:09:09;8.67;;;3.17;;
4889;SDS011;2459;42.268;23.112;2022-11-20T12:11:38;20.57;;;7.57;;
4889;SDS011;2459;42.268;23.112;2022-11-20T12:14:09;19.43;;;3.83;;
4889;SDS011;2459;42.268;23.112;2022-11-20T12:16:40;17.20;;;5.00;;
4889;SDS011;2459;42.268;23.112;2022-11-20T12:19:07;18.87;;;6.40;;
4889;SDS011;2459;42.268;23.112;2022-11-20T12:21:38;20.93;;;8.30;;
4889;SDS011;2459;42.268;23.112;2022-11-20T12:24:09;28.70;;;10.00;;
4889;SDS011;2459;42.268;23.112;2022-11-20T12:26:42;23.90;;;10.97;;
4889;SDS011;2459;42.268;23.112;2022-11-20T12:29:13;30.03;;;15.20;;
4889;SDS011;2459;42.268;23.112;2022-11-20T12:31:51;11.70;;;8.00;;
4889;SDS011;2459;42.268;23.112;2022-11-20T12:34:24;22.90;;;5.20;;
4889;SDS011;2459;42.268;23.112;2022-11-20T12:36:54;17.10;;;5.40;;
4889;SDS011;2459;42.268;23.112;2022-11-20T12:39:33;25.33;;;12.17;;
4889;SDS011;2459;42.268;23.112;2022-11-20T12:42:04;27.80;;;8.47;;
4889;SDS011;2459;42.268;23.112;2022-11-20T12:44:56;27.30;;;7.80;;
4889;SDS011;2459;42.268;23.112;2022-11-20T12:47:46;32.30;;;7.13;;
4889;SDS011;2459;42.268;23.112;2022-11-20T12:50:16;24.97;;;7.50;;
4889;SDS011;2459;42.268;23.112;2022-11-20T12:52:47;31.90;;;6.47;;
4889;SDS011;2459;42.268;23.112;2022-11-20T12:55:21;32.43;;;6.90;;
4889;SDS011;2459;42.268;23.112;2022-11-20T12:57:50;25.80;;;6.57;;
4889;SDS011;2459;42.268;23.112;2022-11-20T13:00:19;33.27;;;7.47;;
4889;SDS011;2459;42.268;23.112;2022-11-20T13:05:34;27.33;;;6.20;;
4889;SDS011;2459;42.268;23.112;2022-11-20T13:08:03;18.10;;;5.50;;
4889;SDS011;2459;42.268;23.112;2022-11-20T13:10:31;39.97;;;6.60;;
4889;SDS011;2459;42.268;23.112;2022-11-20T13:13:00;38.53;;;7.93;;
4889;SDS011;2459;42.268;23.112;2022-11-20T13:15:33;29.47;;;7.73;;
4889;SDS011;2459;42.268;23.112;2022-11-20T13:18:04;29.53;;;8.43;;
4889;SDS011;2459;42.268;23.112;2022-11-20T13:20:35;20.37;;;6.87;;
4889;SDS011;2459;42.268;23.112;2022-11-20T13:23:03;33.60;;;9.33;;
4889;SDS011;2459;42.268;23.112;2022-11-20T13:25:30;28.13;;;8.83;;
4889;SDS011;2459;42.268;23.112;2022-11-20T13:27:58;39.13;;;11.87;;
4889;SDS011;2459;42.268;23.112;2022-11-20T13:30:25;21.53;;;8.13;;
4889;SDS011;2459;42.268;23.112;2022-11-20T13:32:54;20.60;;;5.07;;
4889;SDS011;2459;42.268;23.112;2022-11-20T13:35:26;29.70;;;7.47;;
4889;SDS011;2459;42.268;23.112;2022-11-20T13:38:01;26.23;;;5.73;;
4889;SDS011;2459;42.268;23.112;2022-11-20T13:40:28;13.43;;;5.60;;
4889;SDS011;2459;42.268;23.112;2022-11-20T13:42:56;54.47;;;19.07;;
4889;SDS011;2459;42.268;23.112;2022-11-20T13:45:23;38.73;;;13.67;;
4889;SDS011;2459;42.268;23.112;2022-11-20T13:47:50;21.53;;;7.93;;
4889;SDS011;2459;42.268;23.112;2022-11-20T13:50:17;21.43;;;5.93;;
4889;SDS011;2459;42.268;23.112;2022-11-20T13:52:46;33.47;;;10.60;;
4889;SDS011;2459;42.268;23.112;2022-11-20T13:55:18;24.67;;;8.60;;
4889;SDS011;2459;42.268;23.112;2022-11-20T13:57:50;26.83;;;7.30;;
4889;SDS011;2459;42.268;23.112;2022-11-20T14:00:19;22.73;;;5.67;;
4889;SDS011;2459;42.268;23.112;2022-11-20T14:02:49;16.77;;;5.37;;
4889;SDS011;2459;42.268;23.112;2022-11-20T14:05:20;21.70;;;4.50;;
4889;SDS011;2459;42.268;23.112;2022-11-20T14:07:47;18.73;;;4.77;;
4889;SDS011;2459;42.268;23.112;2022-11-20T14:10:23;15.10;;;3.60;;
4889;SDS011;2459;42.268;23.112;2022-11-20T14:12:50;13.33;;;3.63;;
4889;SDS011;2459;42.268;23.112;2022-11-20T14:15:27;9.47;;;4.23;;
4889;SDS011;2459;42.268;23.112;2022-11-20T14:17:54;20.57;;;5.20;;
4889;SDS011;2459;42.268;23.112;2022-11-20T14:20:20;34.17;;;5.47;;
4889;SDS011;2459;42.268;23.112;2022-11-20T14:22:50;20.20;;;4.90;;
4889;SDS011;2459;42.268;23.112;2022-11-20T14:25:21;17.43;;;5.47;;
4889;SDS011;2459;42.268;23.112;2022-11-20T14:27:53;13.40;;;3.97;;
4889;SDS011;2459;42.268;23.112;2022-11-20T14:30:23;22.10;;;8.40;;
4889;SDS011;2459;42.268;23.112;2022-11-20T14:32:50;24.10;;;6.87;;
4889;SDS011;2459;42.268;23.112;2022-11-20T14:35:18;13.23;;;4.13;;
4889;SDS011;2459;42.268;23.112;2022-11-20T14:37:46;22.37;;;6.60;;
4889;SDS011;2459;42.268;23.112;2022-11-20T14:40:23;19.63;;;5.13;;
4889;SDS011;2459;42.268;23.112;2022-11-20T14:42:50;28.83;;;5.30;;
4889;SDS011;2459;42.268;23.112;2022-11-20T14:45:18;36.87;;;8.87;;
4889;SDS011;2459;42.268;23.112;2022-11-20T14:47:44;23.40;;;5.53;;
4889;SDS011;2459;42.268;23.112;2022-11-20T14:50:12;15.43;;;5.20;;
4889;SDS011;2459;42.268;23.112;2022-11-20T14:52:40;23.83;;;6.83;;
4889;SDS011;2459;42.268;23.112;2022-11-20T14:55:24;26.93;;;7.30;;
4889;SDS011;2459;42.268;23.112;2022-11-20T14:57:54;27.87;;;5.67;;
4889;SDS011;2459;42.268;23.112;2022-11-20T15:00:22;28.33;;;5.10;;
4889;SDS011;2459;42.268;23.112;2022-11-20T15:02:49;28.40;;;6.27;;
4889;SDS011;2459;42.268;23.112;2022-11-20T15:05:17;17.93;;;5.47;;
4889;SDS011;2459;42.268;23.112;2022-11-20T15:07:45;25.83;;;5.10;;